createdAt,value
2022-09-16T00:00:42.598Z,1.75
2022-09-16T00:03:29.529Z,1.63
2022-09-16T00:05:56.914Z,1.80
2022-09-16T00:08:24.030Z,1.50
2022-09-16T00:10:51.228Z,1.50
2022-09-16T00:13:19.354Z,1.40
2022-09-16T00:15:49.217Z,1.70
2022-09-16T00:18:16.167Z,2.17
2022-09-16T00:20:51.627Z,2.00
2022-09-16T00:23:19.668Z,1.80
2022-09-16T00:25:56.341Z,1.38
2022-09-16T00:28:23.675Z,1.35
2022-09-16T00:30:51.086Z,1.85
2022-09-16T00:33:19.642Z,1.92
2022-09-16T00:35:47.276Z,2.08
2022-09-16T00:38:15.169Z,2.53
2022-09-16T00:40:47.880Z,2.30
2022-09-16T00:43:17.374Z,1.58
2022-09-16T00:45:49.987Z,1.80
2022-09-16T00:48:21.329Z,2.03
2022-09-16T00:50:58.366Z,1.98
2022-09-16T00:53:29.608Z,2.15
2022-09-16T00:56:01.242Z,2.33
2022-09-16T00:59:03.218Z,1.90
2022-09-16T01:01:31.885Z,1.70
2022-09-16T01:04:15.747Z,1.63
2022-09-16T01:06:42.977Z,1.98
2022-09-16T01:09:09.867Z,2.38
2022-09-16T01:11:36.766Z,1.45
2022-09-16T01:14:23.824Z,1.70
2022-09-16T01:17:01.340Z,2.20
2022-09-16T01:20:03.634Z,1.80
2022-09-16T01:23:09.430Z,2.00
2022-09-16T01:25:55.197Z,2.55
2022-09-16T01:28:40.664Z,1.70
2022-09-16T01:31:13.112Z,1.52
2022-09-16T01:34:08.915Z,1.30
2022-09-16T01:36:51.281Z,1.48
2022-09-16T01:39:31.526Z,1.58
2022-09-16T01:42:20.905Z,1.30
2022-09-16T01:45:08.154Z,1.38
2022-09-16T01:48:13.982Z,1.02
2022-09-16T01:51:25.339Z,1.05
2022-09-16T01:53:58.365Z,0.80
2022-09-16T01:56:39.969Z,1.38
2022-09-16T01:59:11.463Z,1.10
2022-09-16T02:01:46.092Z,1.13
2022-09-16T02:04:19.980Z,1.10
2022-09-16T02:06:49.727Z,1.23
2022-09-16T02:09:37.387Z,1.17
2022-09-16T02:12:08.365Z,1.08
2022-09-16T02:14:47.309Z,1.40
2022-09-16T02:17:21.621Z,1.38
2022-09-16T02:20:02.107Z,1.17
2022-09-16T02:22:35.090Z,1.67
2022-09-16T02:27:32.436Z,1.48
2022-09-16T02:30:08.625Z,1.35
2022-09-16T02:32:42.750Z,1.23
2022-09-16T02:35:15.069Z,1.65
2022-09-16T02:37:51.813Z,1.67
2022-09-16T02:40:25.755Z,1.90
2022-09-16T02:42:53.278Z,1.42
2022-09-16T02:45:30.803Z,1.52
2022-09-16T02:48:06.425Z,1.70
2022-09-16T02:51:01.733Z,1.15
2022-09-16T02:53:55.154Z,1.30
2022-09-16T02:56:37.549Z,1.23
2022-09-16T02:59:06.983Z,1.40
2022-09-16T03:01:41.450Z,1.42
2022-09-16T03:04:09.865Z,1.35
2022-09-16T03:06:36.856Z,1.30
2022-09-16T03:09:06.833Z,1.42
2022-09-16T03:11:47.577Z,1.45
2022-09-16T03:14:27.671Z,1.88
2022-09-16T03:17:36.591Z,1.20
2022-09-16T03:20:11.011Z,1.27
2022-09-16T03:22:48.748Z,1.30
2022-09-16T03:25:15.729Z,1.20
2022-09-16T03:27:57.599Z,1.10
2022-09-16T03:30:24.528Z,1.30
2022-09-16T03:32:54.311Z,1.38
2022-09-16T03:35:27.676Z,1.35
2022-09-16T03:37:59.617Z,2.33
2022-09-16T03:40:29.851Z,1.27
2022-09-16T03:42:58.347Z,1.10
2022-09-16T03:45:25.500Z,1.20
2022-09-16T03:47:53.579Z,1.02
2022-09-16T03:50:21.320Z,1.50
2022-09-16T03:52:48.599Z,1.45
2022-09-16T03:55:17.051Z,1.35
2022-09-16T03:57:45.487Z,1.33
2022-09-16T04:00:15.817Z,1.52
2022-09-16T04:02:42.776Z,2.00
2022-09-16T04:05:10.032Z,1.23
2022-09-16T04:07:37.017Z,1.55
2022-09-16T04:10:05.773Z,1.17
2022-09-16T04:12:33.049Z,1.25
2022-09-16T04:15:00.985Z,1.23
2022-09-16T04:17:31.847Z,1.77
2022-09-16T04:19:58.993Z,2.00
2022-09-16T04:22:29.429Z,1.83
2022-09-16T04:24:56.779Z,1.67
2022-09-16T04:27:24.706Z,1.65
2022-09-16T04:29:51.588Z,1.23
2022-09-16T04:32:18.543Z,1.90
2022-09-16T04:34:46.080Z,2.42
2022-09-16T04:37:13.019Z,1.45
2022-09-16T04:39:40.104Z,1.33
2022-09-16T04:42:07.524Z,1.45
2022-09-16T04:44:34.428Z,1.75
2022-09-16T04:47:01.300Z,1.13
2022-09-16T04:49:28.408Z,1.27
2022-09-16T04:51:55.530Z,1.05
2022-09-16T04:54:22.523Z,1.10
2022-09-16T04:56:49.904Z,1.35
2022-09-16T04:59:16.838Z,1.27
2022-09-16T05:01:43.908Z,1.10
2022-09-16T05:04:11.152Z,1.00
2022-09-16T05:06:40.760Z,1.50
2022-09-16T05:09:10.048Z,0.75
2022-09-16T05:11:38.951Z,1.00
2022-09-16T05:14:08.552Z,1.50
2022-09-16T05:16:35.528Z,1.38
2022-09-16T05:19:06.418Z,1.17
2022-09-16T05:21:37.978Z,1.40
2022-09-16T05:24:10.156Z,0.85
2022-09-16T05:26:39.463Z,1.38
2022-09-16T05:29:09.048Z,1.15
2022-09-16T05:31:38.419Z,0.93
2022-09-16T05:34:13.507Z,1.05
2022-09-16T05:36:43.332Z,1.00
2022-09-16T05:39:23.096Z,1.02
2022-09-16T05:41:55.455Z,0.90
2022-09-16T05:44:22.793Z,1.30
2022-09-16T05:46:50.097Z,0.90
2022-09-16T05:49:20.777Z,0.50
2022-09-16T05:51:49.365Z,0.73
2022-09-16T05:54:18.692Z,0.82
2022-09-16T05:56:47.360Z,0.63
2022-09-16T05:59:15.804Z,0.90
2022-09-16T06:01:43.452Z,0.60
2022-09-16T06:04:12.798Z,0.65
2022-09-16T06:06:43.000Z,0.82
2022-09-16T06:09:14.879Z,0.82
2022-09-16T06:11:47.547Z,0.57
2022-09-16T06:14:15.824Z,0.75
2022-09-16T06:16:43.999Z,0.63
2022-09-16T06:19:13.740Z,0.77
2022-09-16T06:21:41.657Z,0.93
2022-09-16T06:24:09.051Z,0.50
2022-09-16T06:26:39.083Z,0.40
2022-09-16T06:29:07.216Z,1.67
2022-09-16T06:31:36.242Z,0.95
2022-09-16T06:34:03.679Z,0.50
2022-09-16T06:36:38.562Z,0.40
2022-09-16T06:39:07.688Z,0.40
2022-09-16T06:41:35.095Z,0.60
2022-09-16T06:44:02.533Z,0.70
2022-09-16T06:46:30.342Z,0.55
2022-09-16T06:49:02.780Z,1.15
2022-09-16T06:51:32.577Z,0.77
2022-09-16T06:54:02.737Z,0.65
2022-09-16T06:56:30.142Z,0.63
2022-09-16T06:58:57.613Z,0.70
2022-09-16T07:01:31.788Z,0.50
2022-09-16T07:04:03.130Z,0.60
2022-09-16T07:06:57.417Z,0.75
2022-09-16T07:09:17.746Z,0.50
2022-09-16T07:11:44.963Z,0.80
2022-09-16T07:14:12.422Z,0.55
2022-09-16T07:16:39.602Z,0.70
2022-09-16T07:19:06.820Z,1.05
2022-09-16T07:21:33.847Z,1.08
2022-09-16T07:24:04.812Z,0.45
2022-09-16T07:26:34.785Z,0.70
2022-09-16T07:29:04.688Z,0.50
2022-09-16T07:31:37.334Z,0.57
2022-09-16T07:34:10.126Z,0.70
2022-09-16T07:36:45.127Z,0.60
2022-09-16T07:39:14.689Z,1.60
2022-09-16T07:41:43.927Z,0.60
2022-09-16T07:44:13.918Z,0.82
2022-09-16T07:46:41.360Z,0.50
2022-09-16T07:49:18.634Z,1.15
2022-09-16T07:51:46.019Z,0.60
2022-09-16T07:54:15.375Z,0.65
2022-09-16T07:56:43.669Z,0.40
2022-09-16T07:59:17.649Z,0.40
2022-09-16T08:01:46.761Z,1.17
2022-09-16T08:04:14.004Z,0.40
2022-09-16T08:06:41.261Z,4.45
2022-09-16T08:09:37.960Z,1.77
2022-09-16T08:11:55.346Z,0.52
2022-09-16T08:14:22.292Z,0.38
2022-09-16T08:16:51.589Z,0.90
2022-09-16T08:19:20.499Z,0.70
2022-09-16T08:21:47.512Z,0.50
2022-09-16T08:24:14.511Z,0.60
2022-09-16T08:26:41.846Z,0.68
2022-09-16T08:29:10.134Z,0.50
2022-09-16T08:31:38.663Z,1.35
2022-09-16T08:34:06.389Z,0.73
2022-09-16T08:36:34.169Z,1.13
2022-09-16T08:39:01.801Z,0.98
2022-09-16T08:41:55.185Z,1.10
2022-09-16T08:45:00.460Z,0.45
2022-09-16T08:47:38.898Z,0.93
2022-09-16T08:50:16.827Z,0.40
2022-09-16T08:52:45.476Z,0.70
2022-09-16T08:55:23.571Z,0.60
2022-09-16T08:58:06.186Z,0.60
2022-09-16T09:00:34.278Z,0.82
2022-09-16T09:03:14.808Z,0.60
2022-09-16T09:05:59.048Z,0.40
2022-09-16T09:08:51.639Z,0.32
2022-09-16T09:11:30.445Z,0.52
2022-09-16T09:14:24.071Z,0.55
2022-09-16T09:16:54.099Z,0.25
2022-09-16T09:19:40.301Z,0.65
2022-09-16T09:22:45.892Z,0.40
2022-09-16T09:25:34.804Z,0.60
2022-09-16T09:28:39.175Z,0.32
2022-09-16T09:31:24.513Z,0.52
2022-09-16T09:33:54.684Z,0.85
2022-09-16T09:36:49.306Z,0.43
2022-09-16T09:39:47.554Z,0.50
2022-09-16T09:42:21.713Z,1.98
2022-09-16T09:45:01.414Z,0.70
2022-09-16T09:47:47.471Z,0.93
2022-09-16T09:50:28.338Z,0.68
2022-09-16T09:53:25.469Z,0.65
2022-09-16T09:56:18.712Z,0.98
2022-09-16T09:59:02.062Z,0.50
2022-09-16T10:01:29.075Z,0.47
2022-09-16T10:03:58.924Z,0.25
2022-09-16T10:06:33.554Z,0.50
2022-09-16T10:09:01.538Z,0.32
2022-09-16T10:11:31.345Z,0.32
2022-09-16T10:14:01.213Z,0.30
2022-09-16T10:16:38.106Z,0.50
2022-09-16T10:19:19.788Z,0.47
2022-09-16T10:21:58.014Z,0.40
2022-09-16T10:24:30.344Z,0.30
2022-09-16T10:26:59.428Z,0.30
2022-09-16T10:29:26.732Z,0.50
2022-09-16T10:31:54.495Z,0.22
2022-09-16T10:34:40.443Z,0.28
2022-09-16T10:37:13.573Z,0.13
2022-09-16T10:39:46.039Z,0.95
2022-09-16T10:42:25.411Z,0.47
2022-09-16T10:44:56.313Z,0.40
2022-09-16T10:47:30.612Z,0.30
2022-09-16T10:50:06.186Z,0.47
2022-09-16T10:52:43.503Z,0.38
2022-09-16T10:55:25.377Z,0.40
2022-09-16T10:57:53.444Z,0.50
2022-09-16T11:00:23.681Z,0.20
2022-09-16T11:03:02.310Z,0.40
2022-09-16T11:05:46.232Z,0.22
2022-09-16T11:08:51.118Z,0.93
2022-09-16T11:11:49.839Z,0.45
2022-09-16T11:14:43.835Z,1.02
2022-09-16T11:17:30.684Z,0.38
2022-09-16T11:20:17.843Z,0.10
2022-09-16T11:23:08.819Z,0.70
2022-09-16T11:25:43.121Z,0.35
2022-09-16T11:28:16.307Z,0.40
2022-09-16T11:33:48.535Z,0.43
2022-09-16T11:36:34.288Z,0.38
2022-09-16T11:39:19.468Z,0.40
2022-09-16T11:42:07.470Z,0.30
2022-09-16T11:44:49.981Z,0.60
2022-09-16T11:47:22.076Z,0.35
2022-09-16T11:50:12.826Z,0.30
2022-09-16T11:52:45.342Z,0.65
2022-09-16T11:57:46.663Z,0.40
2022-09-16T12:00:18.514Z,0.30
2022-09-16T12:03:22.643Z,0.20
2022-09-16T12:05:55.091Z,0.57
2022-09-16T12:08:39.925Z,0.38
2022-09-16T12:11:27.119Z,0.32
2022-09-16T12:14:06.424Z,0.43
2022-09-16T12:16:43.594Z,0.20
2022-09-16T12:19:34.437Z,0.35
2022-09-16T12:22:21.451Z,0.20
2022-09-16T12:24:57.151Z,0.20
2022-09-16T12:27:34.907Z,0.10
2022-09-16T12:30:26.130Z,0.30
2022-09-16T12:33:02.483Z,0.30
2022-09-16T12:36:04.549Z,0.28
2022-09-16T12:38:32.082Z,0.47
2022-09-16T12:41:11.054Z,0.20
2022-09-16T12:43:50.106Z,0.20
2022-09-16T12:46:17.056Z,0.22
2022-09-16T12:49:03.196Z,0.38
2022-09-16T12:51:50.472Z,0.30
2022-09-16T12:54:45.778Z,0.20
2022-09-16T12:57:55.041Z,0.30
2022-09-16T13:00:42.931Z,0.33
2022-09-16T13:03:24.139Z,0.43
2022-09-16T13:05:53.899Z,0.38
2022-09-16T13:08:26.204Z,0.30
2022-09-16T13:11:19.981Z,0.10
2022-09-16T13:13:50.371Z,0.20
2022-09-16T13:16:36.997Z,0.20
2022-09-16T13:19:24.707Z,0.30
2022-09-16T13:22:01.483Z,0.22
2022-09-16T13:24:38.075Z,0.30
2022-09-16T13:27:41.497Z,0.10
2022-09-16T13:30:08.463Z,0.10
2022-09-16T13:32:52.064Z,0.40
2022-09-16T13:35:18.981Z,0.55
2022-09-16T13:37:47.914Z,0.30
2022-09-16T13:40:20.058Z,0.50
2022-09-16T13:42:47.513Z,0.57
2022-09-16T13:45:39.482Z,0.40
2022-09-16T13:48:35.909Z,0.30
2022-09-16T13:51:09.609Z,0.32
2022-09-16T13:53:43.323Z,0.10
2022-09-16T13:56:13.729Z,0.30
2022-09-16T13:59:23.135Z,0.52
2022-09-16T14:02:11.600Z,0.63
2022-09-16T14:04:50.289Z,0.30
2022-09-16T14:07:38.412Z,0.20
2022-09-16T14:10:30.343Z,0.45
2022-09-16T14:13:11.182Z,0.30
2022-09-16T14:15:43.268Z,0.30
2022-09-16T14:18:14.816Z,0.10
2022-09-16T14:21:18.814Z,0.20
2022-09-16T14:23:45.858Z,0.30
2022-09-16T14:26:18.917Z,0.20
2022-09-16T14:28:46.424Z,0.22
2022-09-16T14:31:17.906Z,0.40
2022-09-16T14:33:54.016Z,0.13
2022-09-16T14:36:35.062Z,0.28
2022-09-16T14:39:08.143Z,0.20
2022-09-16T14:41:45.812Z,0.35
2022-09-16T14:44:18.852Z,0.40
2022-09-16T14:47:04.808Z,0.55
2022-09-16T14:49:38.098Z,0.10
2022-09-16T14:52:16.044Z,0.20
2022-09-16T14:54:45.960Z,0.10
2022-09-16T14:57:24.941Z,0.50
2022-09-16T14:59:54.869Z,0.38
2022-09-16T15:02:37.578Z,0.20
2022-09-16T15:05:46.027Z,0.25
2022-09-16T15:08:18.325Z,0.55
2022-09-16T15:10:55.096Z,0.20
2022-09-16T15:13:29.789Z,0.10
2022-09-16T15:16:13.244Z,0.32
2022-09-16T15:18:54.281Z,0.30
2022-09-16T15:21:25.492Z,0.30
2022-09-16T15:23:57.024Z,0.52
2022-09-16T15:26:29.369Z,0.30
2022-09-16T15:28:59.077Z,0.30
2022-09-16T15:31:32.179Z,1.08
2022-09-16T15:34:01.343Z,0.45
2022-09-16T15:36:58.250Z,0.40
2022-09-16T15:39:36.310Z,0.43
2022-09-16T15:42:20.764Z,0.30
2022-09-16T15:44:55.227Z,0.70
2022-09-16T15:47:45.196Z,0.40
2022-09-16T15:50:16.608Z,1.27
2022-09-16T15:52:59.656Z,0.40
2022-09-16T15:58:27.901Z,0.70
2022-09-16T16:00:55.276Z,0.28
2022-09-16T16:03:22.774Z,0.52
2022-09-16T16:05:54.354Z,0.17
2022-09-16T16:08:42.081Z,0.30
2022-09-16T16:11:11.443Z,0.47
2022-09-16T16:13:41.883Z,0.30
2022-09-16T16:16:10.095Z,0.38
2022-09-16T16:18:38.260Z,0.30
2022-09-16T16:21:11.494Z,0.43
2022-09-16T16:23:38.838Z,0.50
2022-09-16T16:26:07.199Z,0.40
2022-09-16T16:28:34.800Z,0.20
2022-09-16T16:31:11.825Z,0.60
2022-09-16T16:33:44.625Z,0.45
2022-09-16T16:36:16.931Z,0.30
2022-09-16T16:38:46.309Z,0.63
2022-09-16T16:41:13.674Z,0.60
2022-09-16T16:43:40.922Z,0.80
2022-09-16T16:46:08.940Z,0.50
2022-09-16T16:48:36.202Z,0.80
2022-09-16T16:51:05.907Z,0.40
2022-09-16T16:53:33.082Z,0.55
2022-09-16T16:56:15.074Z,0.95
2022-09-16T16:58:43.752Z,0.45
2022-09-16T17:01:16.406Z,0.47
2022-09-16T17:03:46.364Z,0.60
2022-09-16T17:06:13.646Z,30.73
2022-09-16T17:08:40.639Z,14.38
2022-09-16T17:11:15.480Z,17.40
2022-09-16T17:13:47.506Z,31.40
2022-09-16T17:16:16.697Z,13.77
2022-09-16T17:18:44.184Z,16.33
2022-09-16T17:21:16.647Z,42.65
2022-09-16T17:23:44.096Z,49.53
2022-09-16T17:26:12.143Z,14.52
2022-09-16T17:28:40.730Z,26.15
2022-09-16T17:31:11.874Z,18.15
2022-09-16T17:33:38.846Z,38.97
2022-09-16T17:36:08.033Z,29.10
2022-09-16T17:38:36.098Z,8.27
2022-09-16T17:41:11.582Z,30.50
2022-09-16T17:43:40.679Z,77.45
2022-09-16T17:46:13.067Z,52.17
2022-09-16T17:48:40.626Z,26.73
2022-09-16T17:51:07.849Z,10.90
2022-09-16T17:53:34.985Z,14.10
2022-09-16T17:56:05.452Z,7.43
2022-09-16T17:58:32.961Z,14.40
2022-09-16T18:01:08.243Z,6.03
2022-09-16T18:03:36.613Z,6.85
2022-09-16T18:06:12.495Z,5.35
2022-09-16T18:08:41.010Z,4.38
2022-09-16T18:11:09.879Z,3.05
2022-09-16T18:13:37.575Z,2.47
2022-09-16T18:16:05.958Z,1.27
2022-09-16T18:18:36.562Z,1.90
2022-09-16T18:21:05.124Z,2.90
2022-09-16T18:23:32.905Z,3.08
2022-09-16T18:26:11.107Z,2.95
2022-09-16T18:29:08.151Z,4.80
2022-09-16T18:31:33.062Z,2.47
2022-09-16T18:34:00.188Z,4.32
2022-09-16T18:36:30.047Z,1.90
2022-09-16T18:38:59.087Z,1.65
2022-09-16T18:41:28.739Z,1.45
2022-09-16T18:44:01.061Z,1.20
2022-09-16T18:46:31.686Z,1.10
2022-09-16T18:48:59.446Z,1.25
2022-09-16T18:51:38.305Z,1.13
2022-09-16T18:54:12.372Z,1.10
2022-09-16T18:56:41.158Z,0.85
2022-09-16T18:59:21.700Z,1.17
2022-09-16T19:01:50.679Z,1.00
2022-09-16T19:04:20.497Z,0.73
2022-09-16T19:06:53.734Z,1.10
2022-09-16T19:09:23.695Z,1.58
2022-09-16T19:11:52.863Z,1.40
2022-09-16T19:14:24.163Z,1.40
2022-09-16T19:16:52.118Z,1.20
2022-09-16T19:19:19.759Z,1.17
2022-09-16T19:21:47.797Z,1.15
2022-09-16T19:24:21.246Z,1.30
2022-09-16T19:26:49.792Z,1.52
2022-09-16T19:29:18.020Z,1.63
2022-09-16T19:31:47.913Z,1.55
2022-09-16T19:34:17.101Z,1.35
2022-09-16T19:36:44.806Z,1.48
2022-09-16T19:39:13.335Z,1.33
2022-09-16T19:41:41.262Z,2.33
2022-09-16T19:44:14.909Z,5.85
2022-09-16T19:46:42.988Z,4.47
2022-09-16T19:49:22.263Z,3.10
2022-09-16T19:51:50.924Z,9.05
2022-09-16T19:54:19.125Z,8.38
2022-09-16T19:56:50.415Z,3.42
2022-09-16T19:59:18.850Z,4.22
2022-09-16T20:01:47.649Z,7.05
2022-09-16T20:04:15.728Z,4.90
2022-09-16T20:06:42.907Z,5.28
2022-09-16T20:09:13.369Z,3.08
2022-09-16T20:11:43.727Z,3.03
2022-09-16T20:14:18.785Z,2.47
2022-09-16T20:16:47.170Z,2.63
2022-09-16T20:19:16.719Z,2.53
2022-09-16T20:21:44.123Z,2.17
2022-09-16T20:24:20.517Z,2.72
2022-09-16T20:26:50.580Z,2.85
2022-09-16T20:29:18.922Z,8.88
2022-09-16T20:31:47.647Z,6.00
2022-09-16T20:34:16.430Z,6.30
2022-09-16T20:36:44.772Z,5.50
2022-09-16T20:39:13.432Z,4.13
2022-09-16T20:41:40.571Z,3.15
2022-09-16T20:44:11.549Z,7.40
2022-09-16T20:46:41.547Z,5.95
2022-09-16T20:49:14.657Z,3.47
2022-09-16T20:51:42.058Z,6.43
2022-09-16T20:54:11.200Z,3.83
2022-09-16T20:56:41.431Z,3.25
2022-09-16T20:59:10.608Z,2.83
2022-09-16T21:01:39.523Z,4.22
2022-09-16T21:04:11.945Z,3.38
2022-09-16T21:06:39.201Z,2.50
2022-09-16T21:09:09.499Z,6.07
2022-09-16T21:11:37.400Z,4.95
2022-09-16T21:14:06.661Z,3.97
2022-09-16T21:16:36.083Z,2.47
2022-09-16T21:19:06.088Z,2.42
2022-09-16T21:21:33.690Z,1.90
2022-09-16T21:24:01.407Z,2.10
2022-09-16T21:26:33.709Z,2.60
2022-09-16T21:29:03.589Z,2.28
2022-09-16T21:31:33.539Z,2.42
2022-09-16T21:34:03.179Z,2.47
2022-09-16T21:36:31.211Z,2.42
2022-09-16T21:38:59.185Z,2.65
2022-09-16T21:41:27.101Z,2.88
2022-09-16T21:43:56.052Z,2.30
2022-09-16T21:46:28.901Z,2.63
2022-09-16T21:49:00.171Z,2.25
2022-09-16T21:51:37.234Z,1.90
2022-09-16T21:54:07.996Z,2.40
2022-09-16T21:56:38.347Z,1.83
2022-09-16T21:59:06.390Z,2.13
2022-09-16T22:01:33.589Z,2.33
2022-09-16T22:04:04.057Z,1.50
2022-09-16T22:06:32.259Z,1.92
2022-09-16T22:09:01.614Z,2.08
2022-09-16T22:11:31.284Z,2.25
2022-09-16T22:14:02.751Z,2.08
2022-09-16T22:16:31.703Z,2.80
2022-09-16T22:19:04.842Z,2.28
2022-09-16T22:21:33.805Z,2.47
2022-09-16T22:24:02.117Z,2.13
2022-09-16T22:26:30.146Z,2.65
2022-09-16T22:41:50.222Z,2.17
2022-09-16T22:44:17.314Z,1.45
2022-09-16T22:46:46.860Z,1.50
2022-09-16T22:49:14.837Z,1.70
2022-09-16T22:51:42.291Z,1.85
2022-09-16T22:54:12.108Z,1.10
2022-09-16T22:56:39.027Z,1.55
2022-09-16T22:59:07.009Z,1.65
2022-09-16T23:01:42.901Z,1.83
2022-09-16T23:04:10.552Z,1.35
2022-09-16T23:06:38.797Z,1.38
2022-09-16T23:09:08.320Z,1.90
2022-09-16T23:11:36.138Z,1.38
2022-09-16T23:14:05.291Z,1.40
2022-09-16T23:16:35.117Z,1.48
2022-09-16T23:19:05.963Z,2.05
2022-09-16T23:21:33.481Z,1.30
2022-09-16T23:24:02.755Z,1.35
2022-09-16T23:26:33.250Z,1.30
2022-09-16T23:29:02.511Z,1.20
2022-09-16T23:31:32.430Z,1.42
2022-09-16T23:34:01.179Z,1.50
2022-09-16T23:36:28.499Z,1.30
2022-09-16T23:38:55.660Z,1.30
2022-09-16T23:41:27.351Z,1.85
2022-09-16T23:43:55.810Z,1.30
2022-09-16T23:46:24.722Z,1.20
2022-09-16T23:48:51.961Z,1.17
2022-09-16T23:51:24.614Z,1.50
2022-09-16T23:53:54.917Z,1.30
2022-09-16T23:56:22.115Z,1.20
2022-09-16T23:58:50.498Z,1.20
